createdAt,value
2019-01-13T00:05:49.481Z,7.30
2019-01-13T00:09:07.382Z,7.40
2019-01-13T00:12:35.559Z,7.40
2019-01-13T00:15:54.744Z,7.40
2019-01-13T00:19:17.124Z,7.50
2019-01-13T00:22:32.325Z,7.50
2019-01-13T00:25:55.092Z,7.50
2019-01-13T00:29:10.873Z,7.60
2019-01-13T00:32:33.257Z,7.60
2019-01-13T00:35:50.577Z,7.60
2019-01-13T00:39:13.335Z,7.60
2019-01-13T00:42:29.088Z,7.50
2019-01-13T00:45:51.844Z,7.50
2019-01-13T00:49:08.164Z,7.60
2019-01-13T00:52:30.889Z,7.60
2019-01-13T00:55:46.895Z,7.60
2019-01-13T00:59:09.572Z,7.60
2019-01-13T01:02:25.441Z,7.60
2019-01-13T01:05:48.140Z,7.60
2019-01-13T01:09:06.417Z,7.60
2019-01-13T01:12:29.003Z,7.60
2019-01-13T01:15:44.710Z,7.60
2019-01-13T01:19:07.371Z,7.60
2019-01-13T01:22:22.655Z,7.50
2019-01-13T01:25:45.010Z,7.50
2019-01-13T01:29:00.948Z,7.40
2019-01-13T01:32:24.040Z,7.60
2019-01-13T01:35:39.125Z,7.60
2019-01-13T01:38:55.848Z,7.60
2019-01-13T01:42:18.574Z,7.60
2019-01-13T01:45:34.032Z,7.60
2019-01-13T01:48:49.416Z,7.60
2019-01-13T01:52:12.371Z,7.50
2019-01-13T01:55:27.942Z,7.50
2019-01-13T01:58:50.357Z,7.30
2019-01-13T02:02:12.043Z,7.50
2019-01-13T02:05:15.150Z,7.50
2019-01-13T02:08:19.265Z,7.50
2019-01-13T02:11:22.185Z,7.50
2019-01-13T02:14:25.492Z,7.40
2019-01-13T02:17:28.387Z,7.50
2019-01-13T02:20:31.303Z,7.50
2019-01-13T02:23:34.352Z,7.50
2019-01-13T02:26:37.277Z,7.50
2019-01-13T02:29:41.086Z,7.50
2019-01-13T02:32:44.396Z,7.50
2019-01-13T02:35:48.715Z,7.50
2019-01-13T02:38:52.300Z,7.50
2019-01-13T02:41:55.216Z,7.50
2019-01-13T02:44:58.116Z,7.50
2019-01-13T02:48:01.880Z,7.50
2019-01-13T02:51:06.206Z,7.50
2019-01-13T02:54:09.512Z,7.50
2019-01-13T02:57:12.430Z,7.50
2019-01-13T03:00:22.520Z,7.50
2019-01-13T03:03:25.449Z,7.50
2019-01-13T03:06:29.851Z,7.50
2019-01-13T03:09:32.751Z,7.50
2019-01-13T03:12:36.170Z,7.50
2019-01-13T03:15:39.070Z,7.60
2019-01-13T03:18:43.556Z,7.60
2019-01-13T03:21:46.489Z,7.60
2019-01-13T03:24:50.035Z,7.60
2019-01-13T03:27:52.951Z,7.60
2019-01-13T03:30:55.984Z,7.50
2019-01-13T03:33:59.995Z,7.50
2019-01-13T03:37:02.921Z,7.50
2019-01-13T03:40:12.347Z,7.60
2019-01-13T03:43:15.693Z,7.50
2019-01-13T03:46:18.583Z,7.50
2019-01-13T03:49:21.823Z,7.60
2019-01-13T03:52:24.771Z,7.50
2019-01-13T03:55:27.689Z,7.50
2019-01-13T03:58:30.636Z,7.50
2019-01-13T04:01:34.242Z,7.50
2019-01-13T04:04:37.167Z,7.50
2019-01-13T04:07:40.065Z,7.50
2019-01-13T04:10:43.651Z,7.50
2019-01-13T04:13:46.573Z,7.50
2019-01-13T04:16:50.512Z,7.50
2019-01-13T04:19:53.440Z,7.50
2019-01-13T04:22:56.342Z,7.50
2019-01-13T04:26:00.759Z,7.60
2019-01-13T04:29:04.143Z,7.60
2019-01-13T04:32:07.073Z,7.60
2019-01-13T04:35:10.343Z,7.60
2019-01-13T04:38:13.598Z,7.60
2019-01-13T04:41:16.834Z,7.60
2019-01-13T04:44:20.083Z,7.50
2019-01-13T04:47:22.981Z,7.60
2019-01-13T04:50:25.925Z,7.60
2019-01-13T04:53:29.485Z,7.60
2019-01-13T04:56:33.105Z,7.60
2019-01-13T04:59:36.289Z,7.60
2019-01-13T05:02:39.231Z,7.60
2019-01-13T05:05:42.141Z,7.60
2019-01-13T05:08:45.798Z,7.60
2019-01-13T05:11:48.718Z,7.60
2019-01-13T05:14:51.940Z,7.70
2019-01-13T05:17:55.408Z,7.60
2019-01-13T05:20:59.587Z,7.70
2019-01-13T05:24:02.867Z,7.70
2019-01-13T05:27:06.059Z,7.70
2019-01-13T05:30:22.579Z,7.70
2019-01-13T05:33:25.531Z,7.70
2019-01-13T05:36:28.456Z,7.70
2019-01-13T05:39:31.355Z,7.70
2019-01-13T05:42:34.592Z,7.70
2019-01-13T05:45:37.845Z,7.70
2019-01-13T05:48:40.782Z,7.70
2019-01-13T05:51:43.678Z,7.70
2019-01-13T05:54:46.597Z,7.70
2019-01-13T05:57:49.826Z,7.70
2019-01-13T06:00:52.822Z,7.70
2019-01-13T06:03:56.551Z,7.70
2019-01-13T06:06:59.768Z,7.70
2019-01-13T06:10:03.886Z,7.70
2019-01-13T06:13:08.216Z,7.70
2019-01-13T06:16:11.110Z,7.70
2019-01-13T06:19:14.376Z,7.70
2019-01-13T06:22:17.292Z,7.70
2019-01-13T06:25:20.212Z,7.70
2019-01-13T06:28:23.130Z,7.70
2019-01-13T06:31:26.316Z,7.80
2019-01-13T06:34:30.132Z,7.80
2019-01-13T06:37:33.029Z,7.80
2019-01-13T06:40:36.322Z,7.80
2019-01-13T06:43:39.532Z,7.80
2019-01-13T06:46:43.226Z,7.80
2019-01-13T06:49:46.465Z,7.80
2019-01-13T06:52:49.395Z,7.80
2019-01-13T06:55:52.731Z,7.80
2019-01-13T06:58:56.438Z,7.80
2019-01-13T07:02:03.303Z,7.90
2019-01-13T07:05:05.707Z,7.80
2019-01-13T07:08:08.676Z,7.90
2019-01-13T07:11:11.588Z,7.90
2019-01-13T07:14:14.885Z,7.90
2019-01-13T07:17:17.867Z,7.90
2019-01-13T07:20:21.637Z,7.90
2019-01-13T07:23:26.044Z,7.90
2019-01-13T07:26:29.412Z,7.90
2019-01-13T07:29:32.700Z,8.00
2019-01-13T07:32:35.617Z,8.00
2019-01-13T07:35:38.553Z,8.00
2019-01-13T07:38:41.471Z,8.00
2019-01-13T07:41:45.108Z,8.00
2019-01-13T07:44:49.006Z,8.00
2019-01-13T07:47:52.294Z,8.00
2019-01-13T07:50:55.495Z,8.00
2019-01-13T07:53:59.142Z,8.00
2019-01-13T07:57:02.412Z,8.10
2019-01-13T08:00:10.946Z,8.10
2019-01-13T08:03:15.532Z,8.10
2019-01-13T08:06:18.474Z,8.10
2019-01-13T08:09:33.676Z,8.10
2019-01-13T08:12:56.355Z,7.90
2019-01-13T08:16:11.404Z,8.10
2019-01-13T08:19:33.794Z,8.20
2019-01-13T08:22:48.983Z,8.20
2019-01-13T08:26:11.750Z,8.20
2019-01-13T08:29:28.728Z,8.10
2019-01-13T08:32:51.468Z,8.20
2019-01-13T08:36:06.860Z,8.20
2019-01-13T08:39:29.241Z,8.30
2019-01-13T08:42:44.550Z,8.20
2019-01-13T08:46:06.948Z,8.30
2019-01-13T08:49:22.348Z,8.20
2019-01-13T08:52:44.734Z,8.20
2019-01-13T08:56:00.471Z,8.30
2019-01-13T08:59:23.167Z,8.30
2019-01-13T09:02:40.395Z,8.40
2019-01-13T09:06:02.782Z,8.40
2019-01-13T09:09:25.183Z,8.40
2019-01-13T09:12:48.052Z,8.50
2019-01-13T09:16:03.619Z,8.50
2019-01-13T09:19:26.276Z,8.50
2019-01-13T09:22:42.191Z,8.50
2019-01-13T09:26:04.556Z,8.70
2019-01-13T09:29:20.301Z,8.60
2019-01-13T09:32:43.064Z,8.60
2019-01-13T09:35:58.500Z,8.60
2019-01-13T09:39:20.979Z,8.60
2019-01-13T09:42:36.888Z,8.60
2019-01-13T09:45:51.964Z,8.60
2019-01-13T09:49:07.305Z,10.30
2019-01-13T09:52:29.673Z,13.10
2019-01-13T09:55:44.788Z,14.00
2019-01-13T09:59:07.168Z,11.40
2019-01-13T10:02:22.685Z,9.80
2019-01-13T10:05:38.984Z,9.20
2019-01-13T10:09:01.694Z,8.90
2019-01-13T10:12:19.181Z,9.00
2019-01-13T10:15:22.791Z,8.90
2019-01-13T10:18:45.690Z,8.90
2019-01-13T10:22:01.419Z,8.90
2019-01-13T10:25:24.141Z,8.80
2019-01-13T10:28:39.561Z,8.80
2019-01-13T10:31:56.473Z,8.90
2019-01-13T10:35:18.934Z,9.00
2019-01-13T10:38:33.979Z,8.80
2019-01-13T10:41:56.821Z,8.80
2019-01-13T10:45:13.564Z,8.80
2019-01-13T10:48:30.389Z,8.80
2019-01-13T10:51:52.894Z,8.80
2019-01-13T10:55:09.167Z,8.80
2019-01-13T10:58:24.320Z,8.70
2019-01-13T11:01:46.772Z,8.80
2019-01-13T11:05:02.613Z,8.70
2019-01-13T11:08:18.105Z,8.80
2019-01-13T11:11:40.833Z,8.80
2019-01-13T11:14:57.313Z,8.80
2019-01-13T11:18:20.021Z,8.80
2019-01-13T11:21:35.538Z,8.80
2019-01-13T11:24:50.921Z,8.70
2019-01-13T11:28:13.968Z,8.90
2019-01-13T11:31:29.593Z,8.80
2019-01-13T11:34:44.894Z,8.80
2019-01-13T11:38:20.228Z,9.00
2019-01-13T11:41:42.601Z,9.00
2019-01-13T11:44:58.550Z,8.80
2019-01-13T11:48:14.037Z,8.90
2019-01-13T11:51:29.301Z,8.70
2019-01-13T11:54:44.579Z,9.00
2019-01-13T11:58:06.952Z,8.80
2019-01-13T12:01:22.253Z,8.90
2019-01-13T12:04:44.652Z,8.90
2019-01-13T12:07:59.918Z,8.80
2019-01-13T12:11:15.320Z,8.80
2019-01-13T12:14:39.327Z,8.80
2019-01-13T12:17:42.347Z,8.70
2019-01-13T12:20:58.147Z,8.90
2019-01-13T12:24:20.828Z,8.90
2019-01-13T12:27:36.446Z,8.90
2019-01-13T12:30:58.842Z,8.90
2019-01-13T12:34:14.110Z,8.90
2019-01-13T12:37:29.804Z,8.80
2019-01-13T12:40:52.827Z,8.70
2019-01-13T12:44:08.017Z,8.80
2019-01-13T12:47:30.425Z,8.90
2019-01-13T12:50:46.023Z,9.00
2019-01-13T12:54:08.424Z,8.80
2019-01-13T12:57:24.167Z,8.90
2019-01-13T13:00:46.613Z,8.90
2019-01-13T13:04:01.883Z,8.90
2019-01-13T13:07:24.406Z,8.80
2019-01-13T13:10:40.990Z,8.90
2019-01-13T13:14:03.730Z,8.80
2019-01-13T13:17:19.955Z,8.90
2019-01-13T13:20:35.901Z,8.90
2019-01-13T13:23:58.439Z,8.90
2019-01-13T13:27:13.944Z,9.00
2019-01-13T13:30:29.206Z,9.00
2019-01-13T13:33:52.013Z,8.80
2019-01-13T13:37:07.210Z,9.00
2019-01-13T13:40:22.809Z,8.90
2019-01-13T13:43:44.442Z,9.00
2019-01-13T13:47:00.361Z,8.90
2019-01-13T13:50:17.365Z,9.00
2019-01-13T13:53:33.208Z,8.90
2019-01-13T13:56:48.588Z,8.90
2019-01-13T14:04:10.664Z,8.90
2019-01-13T14:07:26.055Z,8.80
2019-01-13T14:10:48.443Z,8.90
2019-01-13T14:14:03.937Z,8.80
2019-01-13T14:17:19.110Z,8.90
2019-01-13T14:20:41.523Z,8.90
2019-01-13T14:23:56.899Z,8.90
2019-01-13T14:27:19.300Z,9.00
2019-01-13T14:30:24.625Z,8.90
2019-01-13T14:33:52.804Z,9.00
2019-01-13T14:37:24.162Z,9.00
2019-01-13T14:40:46.929Z,8.90
2019-01-13T14:44:02.357Z,9.00
2019-01-13T14:47:24.748Z,8.90
2019-01-13T14:50:40.164Z,9.00
2019-01-13T14:53:55.204Z,8.90
2019-01-13T14:57:10.496Z,8.90
2019-01-13T15:00:33.249Z,9.00
2019-01-13T15:03:49.171Z,9.00
2019-01-13T15:07:11.571Z,8.90
2019-01-13T15:10:26.539Z,8.90
2019-01-13T15:13:42.037Z,8.90
2019-01-13T15:17:04.707Z,9.00
2019-01-13T15:20:20.849Z,8.90
2019-01-13T15:23:43.258Z,8.90
2019-01-13T15:26:59.062Z,9.00
2019-01-13T15:30:26.912Z,9.00
2019-01-13T15:33:42.712Z,9.00
2019-01-13T15:37:05.111Z,9.00
2019-01-13T15:40:20.232Z,9.00
2019-01-13T15:43:42.627Z,9.10
2019-01-13T15:46:46.381Z,9.10
2019-01-13T15:50:01.821Z,9.10
2019-01-13T15:53:24.556Z,9.10
2019-01-13T15:56:39.596Z,9.00
2019-01-13T15:59:42.498Z,9.00
2019-01-13T16:02:58.750Z,9.10
2019-01-13T16:06:21.150Z,9.10
2019-01-13T16:09:37.552Z,8.80
2019-01-13T16:12:53.491Z,9.00
2019-01-13T16:16:16.877Z,8.90
2019-01-13T16:19:32.803Z,9.00
2019-01-13T16:22:48.327Z,9.00
2019-01-13T16:26:10.724Z,9.00
2019-01-13T16:29:27.046Z,9.00
2019-01-13T16:32:49.463Z,8.90
2019-01-13T16:36:05.104Z,9.00
2019-01-13T16:39:27.500Z,9.00
2019-01-13T16:42:42.696Z,9.00
2019-01-13T16:45:58.552Z,9.00
2019-01-13T16:49:14.666Z,9.20
2019-01-13T16:56:32.857Z,9.00
2019-01-13T16:59:48.510Z,9.00
2019-01-13T17:03:11.196Z,9.00
2019-01-13T17:06:26.786Z,9.00
2019-01-13T17:09:49.264Z,8.90
2019-01-13T17:13:04.537Z,9.00
2019-01-13T17:16:19.607Z,9.00
2019-01-13T17:19:42.321Z,9.10
2019-01-13T17:22:58.305Z,9.00
2019-01-13T17:26:20.720Z,8.90
2019-01-13T17:29:36.529Z,8.90
2019-01-13T17:32:58.917Z,9.00
2019-01-13T17:36:14.334Z,9.10
2019-01-13T17:39:37.025Z,8.90
2019-01-13T17:42:53.024Z,9.00
2019-01-13T17:46:15.409Z,9.00
2019-01-13T17:49:31.273Z,9.00
2019-01-13T17:52:53.768Z,9.00
2019-01-13T17:56:09.597Z,9.00
2019-01-13T17:59:31.971Z,8.80
2019-01-13T18:02:47.336Z,8.40
2019-01-13T18:06:09.732Z,8.30
2019-01-13T18:09:25.242Z,8.30
2019-01-13T18:12:41.191Z,8.20
2019-01-13T18:16:03.568Z,8.00
2019-01-13T18:19:18.742Z,8.10
2019-01-13T18:22:41.175Z,8.00
2019-01-13T18:25:56.288Z,8.00
2019-01-13T18:29:11.542Z,7.90
2019-01-13T18:32:33.937Z,8.00
2019-01-13T18:35:49.348Z,8.00
2019-01-13T18:39:05.757Z,8.00
2019-01-13T18:42:22.630Z,8.00
2019-01-13T18:45:38.065Z,8.00
2019-01-13T18:48:53.534Z,8.10
2019-01-13T18:52:16.605Z,8.00
2019-01-13T18:55:32.238Z,8.10
2019-01-13T18:58:54.695Z,8.00
2019-01-13T19:02:08.486Z,8.00
2019-01-13T19:05:24.240Z,8.10
2019-01-13T19:08:47.303Z,8.00
2019-01-13T19:12:02.764Z,8.00
2019-01-13T19:15:18.000Z,8.10
2019-01-13T19:18:40.458Z,8.20
2019-01-13T19:21:55.529Z,8.20
2019-01-13T19:25:22.055Z,8.10
2019-01-13T19:28:37.448Z,8.10
2019-01-13T19:32:00.144Z,8.10
2019-01-13T19:35:15.734Z,8.00
2019-01-13T19:38:31.905Z,8.10
2019-01-13T19:41:47.372Z,8.10
2019-01-13T19:49:07.259Z,8.20
2019-01-13T19:52:23.110Z,8.10
2019-01-13T19:55:45.606Z,8.10
2019-01-13T19:59:01.444Z,8.20
2019-01-13T20:02:24.343Z,8.10
2019-01-13T20:05:39.768Z,8.20
2019-01-13T20:09:14.099Z,8.20
2019-01-13T20:12:36.710Z,8.20
2019-01-13T20:15:52.106Z,8.30
2019-01-13T20:19:14.613Z,8.20
2019-01-13T20:22:30.410Z,8.20
2019-01-13T20:25:52.838Z,8.10
2019-01-13T20:29:08.233Z,8.10
2019-01-13T20:32:31.075Z,8.30
2019-01-13T20:35:46.983Z,8.00
2019-01-13T20:43:06.646Z,8.20
2019-01-13T20:46:29.338Z,8.10
2019-01-13T20:49:44.713Z,8.20
2019-01-13T20:53:07.552Z,8.00
2019-01-13T20:56:23.351Z,8.10
2019-01-13T20:59:46.345Z,8.00
2019-01-13T21:03:03.350Z,8.10
2019-01-13T21:06:25.752Z,8.10
2019-01-13T21:09:41.608Z,8.10
2019-01-13T21:12:58.986Z,8.40
2019-01-13T21:16:21.377Z,8.30
2019-01-13T21:19:37.400Z,8.20
2019-01-13T21:22:52.940Z,8.20
2019-01-13T21:26:15.409Z,8.10
2019-01-13T21:29:31.395Z,8.10
2019-01-13T21:32:47.148Z,8.10
2019-01-13T21:36:03.196Z,8.10
2019-01-13T21:39:25.593Z,8.00
2019-01-13T21:42:41.145Z,8.00
2019-01-13T21:46:04.310Z,8.00
2019-01-13T21:49:21.858Z,8.10
2019-01-13T21:52:44.499Z,7.90
2019-01-13T21:55:59.634Z,7.90
2019-01-13T21:59:23.470Z,8.00
2019-01-13T22:02:59.666Z,8.00
2019-01-13T22:06:22.138Z,8.10
2019-01-13T22:09:37.356Z,8.00
2019-01-13T22:13:00.153Z,7.90
2019-01-13T22:16:15.855Z,7.80
2019-01-13T22:19:38.267Z,7.90
2019-01-13T22:22:53.742Z,7.90
2019-01-13T22:26:16.459Z,7.90
2019-01-13T22:29:32.397Z,7.80
2019-01-13T22:32:55.080Z,7.70
2019-01-13T22:36:11.173Z,7.70
2019-01-13T22:39:33.583Z,7.70
2019-01-13T22:42:49.570Z,7.60
2019-01-13T22:46:05.046Z,7.70
2019-01-13T22:49:28.760Z,7.70
2019-01-13T22:52:44.038Z,7.70
2019-01-13T22:55:59.892Z,7.80
2019-01-13T22:59:22.328Z,7.80
2019-01-13T23:02:37.939Z,7.80
2019-01-13T23:06:00.723Z,7.80
2019-01-13T23:09:14.346Z,7.70
2019-01-13T23:12:36.840Z,7.60
2019-01-13T23:15:52.243Z,7.60
2019-01-13T23:19:14.937Z,7.50
2019-01-13T23:22:30.583Z,7.70
2019-01-13T23:25:52.995Z,7.60
2019-01-13T23:29:08.937Z,7.50
2019-01-13T23:32:24.260Z,7.40
2019-01-13T23:35:39.584Z,7.50
2019-01-13T23:38:43.213Z,7.50
2019-01-13T23:41:46.544Z,7.60
2019-01-13T23:45:09.982Z,7.60
2019-01-13T23:48:26.048Z,7.60
2019-01-13T23:51:48.546Z,7.60
2019-01-13T23:55:04.500Z,7.60
2019-01-13T23:58:19.893Z,7.60
